createdAt,value
2022-07-25T00:00:51.217Z,99914.06
2022-07-25T00:03:56.601Z,99913.84
2022-07-25T00:07:00.657Z,99920.88
2022-07-25T00:10:06.275Z,99919.78
2022-07-25T00:13:13.408Z,99920.69
2022-07-25T00:16:18.153Z,99917.47
2022-07-25T00:19:22.292Z,99916.25
2022-07-25T00:22:25.940Z,99924.87
2022-07-25T00:25:29.958Z,99910.66
2022-07-25T00:28:35.496Z,99907.53
2022-07-25T00:31:39.846Z,99904.91
2022-07-25T00:34:43.128Z,99900.50
2022-07-25T00:37:46.075Z,99904.59
2022-07-25T00:40:55.668Z,99912.19
2022-07-25T00:44:01.036Z,99910.31
2022-07-25T00:47:04.204Z,99901.87
2022-07-25T00:50:07.952Z,99898.69
2022-07-25T00:53:14.371Z,99909.81
2022-07-25T00:56:20.071Z,99905.84
2022-07-25T00:59:28.887Z,99902.63
2022-07-25T01:02:32.093Z,99898.47
2022-07-25T01:05:35.681Z,99905.50
2022-07-25T01:08:39.750Z,99900.53
2022-07-25T01:11:43.261Z,99904.72
2022-07-25T01:14:46.210Z,99907.69
2022-07-25T01:17:51.248Z,99902.94
2022-07-25T01:20:53.891Z,99902.28
2022-07-25T01:23:56.971Z,99906.09
2022-07-25T01:27:00.769Z,99902.34
2022-07-25T01:30:09.218Z,99897.16
2022-07-25T01:33:17.433Z,99899.12
2022-07-25T01:36:20.688Z,99892.09
2022-07-25T01:39:23.478Z,99896.72
2022-07-25T01:42:28.635Z,99886.47
2022-07-25T01:45:33.014Z,99885.28
2022-07-25T01:48:37.159Z,99886.28
2022-07-25T01:51:43.061Z,99893.31
2022-07-25T01:54:47.363Z,99887.41
2022-07-25T01:57:52.258Z,99880.59
2022-07-25T02:00:56.680Z,99877.31
2022-07-25T02:04:04.691Z,99874.25
2022-07-25T02:07:09.244Z,99874.25
2022-07-25T02:10:13.856Z,99878.19
2022-07-25T02:13:16.795Z,99880.19
2022-07-25T02:16:29.212Z,99878.75
2022-07-25T02:19:32.588Z,99876.44
2022-07-25T02:22:36.883Z,99884.69
2022-07-25T02:25:39.863Z,99880.28
2022-07-25T02:28:44.460Z,99881.34
2022-07-25T02:31:50.963Z,99890.25
2022-07-25T02:34:54.761Z,99896.63
2022-07-25T02:37:58.477Z,99890.81
2022-07-25T02:41:02.512Z,99892.25
2022-07-25T02:44:08.098Z,99890.69
2022-07-25T02:47:16.367Z,99892.84
2022-07-25T02:50:20.963Z,99892.44
2022-07-25T02:53:47.074Z,99889.59
2022-07-25T02:56:50.035Z,99896.31
2022-07-25T02:59:53.451Z,99897.44
2022-07-25T03:02:58.772Z,99897.31
2022-07-25T03:06:02.491Z,99898.69
2022-07-25T03:09:06.476Z,99901.00
2022-07-25T03:12:11.277Z,99897.13
2022-07-25T03:15:14.685Z,99897.91
2022-07-25T03:18:17.875Z,99893.69
2022-07-25T03:21:21.336Z,99889.72
2022-07-25T03:24:25.015Z,99895.25
2022-07-25T03:27:28.204Z,99899.06
2022-07-25T03:30:32.148Z,99897.91
2022-07-25T03:33:35.772Z,99902.94
2022-07-25T03:36:39.139Z,99900.06
2022-07-25T03:39:42.756Z,99909.31
2022-07-25T03:42:46.002Z,99909.31
2022-07-25T03:45:49.661Z,99911.88
2022-07-25T03:48:53.365Z,99900.66
2022-07-25T03:51:57.056Z,99914.72
2022-07-25T03:55:01.487Z,99905.81
2022-07-25T03:58:04.831Z,99906.81
2022-07-25T04:01:08.680Z,99913.00
2022-07-25T04:04:19.491Z,99912.56
2022-07-25T04:07:24.679Z,99912.31
2022-07-25T04:10:29.174Z,99909.94
2022-07-25T04:13:33.448Z,99916.78
2022-07-25T04:16:39.352Z,99922.19
2022-07-25T04:19:49.562Z,99913.84
2022-07-25T04:22:53.352Z,99922.22
2022-07-25T04:26:00.478Z,99926.41
2022-07-25T04:29:18.932Z,99928.72
2022-07-25T04:32:28.570Z,99923.63
2022-07-25T04:35:32.235Z,99930.72
2022-07-25T04:38:38.897Z,99925.78
2022-07-25T04:41:42.354Z,99929.03
2022-07-25T04:44:50.331Z,99937.84
2022-07-25T04:47:56.935Z,99930.28
2022-07-25T04:51:05.217Z,99933.50
2022-07-25T04:54:14.675Z,99934.72
2022-07-25T04:57:19.360Z,99924.34
2022-07-25T05:00:27.963Z,99933.47
2022-07-25T05:03:35.106Z,99930.63
2022-07-25T05:06:58.322Z,99929.28
2022-07-25T05:10:02.219Z,99931.31
2022-07-25T05:16:51.745Z,99931.69
2022-07-25T05:19:58.949Z,99937.31
2022-07-25T05:23:11.008Z,99930.53
2022-07-25T05:30:25.620Z,99918.72
2022-07-25T05:33:32.817Z,99923.50
2022-07-25T05:36:45.474Z,99925.19
2022-07-25T05:40:16.291Z,99923.75
2022-07-25T05:43:40.530Z,99926.41
2022-07-25T05:46:45.196Z,99927.59
2022-07-25T05:49:51.918Z,99928.59
2022-07-25T05:52:59.380Z,99929.44
2022-07-25T05:56:15.969Z,99926.97
2022-07-25T05:59:19.800Z,99932.59
2022-07-25T06:02:23.281Z,99925.50
2022-07-25T06:05:26.971Z,99931.06
2022-07-25T06:08:31.187Z,99925.56
2022-07-25T06:11:34.336Z,99931.25
2022-07-25T06:14:39.919Z,99917.09
2022-07-25T06:17:44.193Z,99919.97
2022-07-25T06:20:49.657Z,99919.69
2022-07-25T06:23:53.479Z,99924.59
2022-07-25T06:26:57.500Z,99921.97
2022-07-25T06:30:00.827Z,99920.19
2022-07-25T06:33:03.924Z,99921.28
2022-07-25T06:36:07.664Z,99919.56
2022-07-25T06:39:11.107Z,99907.16
2022-07-25T06:46:53.855Z,99905.69
2022-07-25T06:49:58.999Z,99896.44
2022-07-25T06:53:02.799Z,99899.12
2022-07-25T07:01:03.847Z,99893.78
2022-07-25T07:04:33.667Z,99898.72
2022-07-25T07:07:37.087Z,99893.50
2022-07-25T07:10:40.822Z,99885.06
2022-07-25T07:13:44.947Z,99889.00
2022-07-25T07:16:48.110Z,99877.84
2022-07-25T07:19:53.597Z,99879.81
2022-07-25T07:23:45.160Z,99879.66
2022-07-25T07:26:55.665Z,99879.94
2022-07-25T07:34:19.000Z,99876.31
2022-07-25T07:37:22.815Z,99884.50
2022-07-25T07:40:29.165Z,99879.63
2022-07-25T07:43:46.584Z,99874.69
2022-07-25T07:46:50.589Z,99873.06
2022-07-25T07:49:59.946Z,99879.63
2022-07-25T07:58:21.006Z,99868.72
2022-07-25T08:05:46.716Z,99864.97
2022-07-25T08:39:05.757Z,99843.59
2022-07-25T08:42:13.421Z,99840.72
2022-07-25T08:45:21.515Z,99821.13
2022-07-25T08:48:45.778Z,99830.75
2022-07-25T08:51:54.025Z,99828.63
2022-07-25T08:55:10.961Z,99815.03
2022-07-25T08:58:19.006Z,99824.78
2022-07-25T09:06:00.790Z,99820.38
2022-07-25T09:16:59.590Z,99818.66
2022-07-25T09:24:40.375Z,99807.59
2022-07-25T09:27:43.719Z,99793.28
2022-07-25T09:30:57.878Z,99793.69
2022-07-25T09:34:08.671Z,99788.16
2022-07-25T09:45:03.339Z,99789.25
2022-07-25T09:48:43.963Z,99781.72
2022-07-25T09:51:48.906Z,99772.37
2022-07-25T09:54:55.476Z,99768.25
2022-07-25T09:58:02.891Z,99773.81
2022-07-25T10:01:42.951Z,99772.66
2022-07-25T10:05:33.954Z,99766.75
2022-07-25T10:08:42.338Z,99763.00
2022-07-25T10:12:08.047Z,99753.91
2022-07-25T10:15:14.543Z,99755.50
2022-07-25T10:18:21.887Z,99756.22
2022-07-25T10:21:29.773Z,99747.03
2022-07-25T10:29:23.012Z,99735.88
2022-07-25T10:32:35.532Z,99736.94
2022-07-25T10:35:56.406Z,99726.72
2022-07-25T10:43:20.079Z,99716.31
2022-07-25T10:46:27.380Z,99719.34
2022-07-25T10:50:13.471Z,99708.69
2022-07-25T10:53:11.940Z,99702.84
2022-07-25T10:56:16.305Z,99707.84
2022-07-25T10:59:47.775Z,99707.31
2022-07-25T11:03:08.235Z,99700.00
2022-07-25T11:06:33.801Z,99692.09
2022-07-25T11:09:57.090Z,99691.38
2022-07-25T11:13:21.869Z,99687.31
2022-07-25T11:16:29.608Z,99673.19
2022-07-25T11:19:35.853Z,99672.28
2022-07-25T11:22:40.013Z,99673.16
2022-07-25T11:25:43.856Z,99668.09
2022-07-25T11:28:49.415Z,99659.00
2022-07-25T11:32:08.626Z,99655.84
2022-07-25T11:35:13.489Z,99647.56
2022-07-25T11:38:17.120Z,99644.00
2022-07-25T11:41:29.967Z,99642.59
2022-07-25T11:44:48.337Z,99630.53
2022-07-25T11:48:08.581Z,99632.84
2022-07-25T11:51:18.874Z,99621.44
2022-07-25T11:54:22.830Z,99614.59
2022-07-25T12:02:02.679Z,99616.94
2022-07-25T12:05:13.121Z,99611.31
2022-07-25T12:08:18.655Z,99603.00
2022-07-25T12:11:29.609Z,99602.97
2022-07-25T12:14:47.717Z,99597.91
2022-07-25T12:17:52.549Z,99586.31
2022-07-25T12:20:55.772Z,99582.91
2022-07-25T12:23:59.173Z,99581.00
2022-07-25T12:27:02.116Z,99578.38
2022-07-25T12:30:10.122Z,99574.91
2022-07-25T12:33:13.616Z,99563.62
2022-07-25T12:36:18.716Z,99567.63
2022-07-25T12:39:21.875Z,99551.53
2022-07-25T12:42:26.065Z,99562.03
2022-07-25T12:45:30.347Z,99550.66
2022-07-25T12:48:37.471Z,99553.03
2022-07-25T12:51:45.403Z,99543.94
2022-07-25T12:54:51.039Z,99548.69
2022-07-25T12:57:54.269Z,99535.34
2022-07-25T13:01:01.895Z,99539.78
2022-07-25T13:04:09.306Z,99531.28
2022-07-25T13:07:16.370Z,99524.94
2022-07-25T13:10:38.590Z,99516.38
2022-07-25T13:13:42.791Z,99507.94
2022-07-25T13:16:47.330Z,99502.69
2022-07-25T13:19:50.563Z,99499.28
2022-07-25T13:22:53.391Z,99496.72
2022-07-25T13:25:56.690Z,99498.31
2022-07-25T13:29:00.305Z,99497.44
2022-07-25T13:32:04.104Z,99499.06
2022-07-25T13:35:20.394Z,99489.44
2022-07-25T13:38:24.411Z,99485.50
2022-07-25T13:41:27.986Z,99479.78
2022-07-25T13:48:28.441Z,99484.59
2022-07-25T13:51:29.843Z,99468.97
2022-07-25T13:54:35.379Z,99466.50
2022-07-25T13:57:38.481Z,99460.84
2022-07-25T14:00:42.262Z,99456.94
2022-07-25T14:04:11.538Z,99460.09
2022-07-25T14:07:35.781Z,99457.09
2022-07-25T14:14:31.331Z,99427.44
2022-07-25T14:17:39.112Z,99431.66
2022-07-25T14:28:06.260Z,99415.13
2022-07-25T14:35:48.801Z,99404.06
2022-07-25T14:38:56.082Z,99398.53
2022-07-25T14:41:59.617Z,99395.59
2022-07-25T14:45:04.558Z,99394.34
2022-07-25T14:48:08.882Z,99385.50
2022-07-25T14:54:58.758Z,99380.91
2022-07-25T14:58:05.617Z,99373.53
2022-07-25T15:01:09.593Z,99380.06
2022-07-25T15:04:33.362Z,99371.19
2022-07-25T15:16:07.260Z,99354.59
2022-07-25T15:19:18.242Z,99357.00
2022-07-25T15:22:21.503Z,99350.63
2022-07-25T15:26:00.116Z,99346.47
2022-07-25T15:28:48.887Z,99344.69
2022-07-25T15:32:03.616Z,99337.09
2022-07-25T15:35:09.639Z,99335.12
2022-07-25T15:38:14.090Z,99331.78
2022-07-25T15:41:23.138Z,99330.00
2022-07-25T15:44:26.433Z,99324.31
2022-07-25T15:52:55.844Z,99321.84
2022-07-25T15:55:44.198Z,99315.63
2022-07-25T15:59:00.285Z,99313.44
2022-07-25T16:02:08.480Z,99310.56
2022-07-25T16:05:11.446Z,99308.47
2022-07-25T16:08:18.279Z,99302.06
2022-07-25T16:11:21.901Z,99302.66
2022-07-25T16:14:26.440Z,99305.47
2022-07-25T16:17:31.165Z,99301.94
2022-07-25T16:20:34.224Z,99301.13
2022-07-25T20:02:17.681Z,99236.88
2022-07-25T20:05:28.525Z,99231.06
2022-07-25T20:08:40.494Z,99231.81
2022-07-25T20:12:09.111Z,99236.91
2022-07-25T20:16:16.916Z,99237.38
2022-07-25T20:24:14.206Z,99231.56
2022-07-25T20:27:21.131Z,99226.25
2022-07-25T20:31:04.756Z,99223.47
2022-07-25T20:35:15.460Z,99227.53
2022-07-25T20:39:03.929Z,99225.03
2022-07-25T21:01:58.338Z,99219.09
2022-07-25T21:05:02.364Z,99217.75
2022-07-25T21:08:07.014Z,99225.34
2022-07-25T21:11:45.996Z,99218.69
2022-07-25T21:19:05.016Z,99220.69
2022-07-25T21:22:10.664Z,99214.31
2022-07-25T21:25:15.396Z,99220.53
2022-07-25T21:28:19.110Z,99226.25
2022-07-25T21:31:27.001Z,99222.44
2022-07-25T21:34:30.947Z,99222.87
2022-07-25T21:37:34.586Z,99227.12
2022-07-25T21:40:40.611Z,99225.44
2022-07-25T21:43:45.478Z,99216.84
2022-07-25T21:46:54.958Z,99216.22
2022-07-25T21:50:31.909Z,99226.28
2022-07-25T21:53:42.545Z,99218.59
2022-07-25T21:56:46.345Z,99212.47
2022-07-25T21:59:50.410Z,99209.37
2022-07-25T22:02:57.511Z,99202.00
2022-07-25T22:06:03.251Z,99197.66
2022-07-25T22:09:07.639Z,99206.00
2022-07-25T22:12:11.415Z,99205.28
2022-07-25T22:15:16.613Z,99200.25
2022-07-25T22:18:23.821Z,99205.88
2022-07-25T22:21:29.154Z,99205.22
2022-07-25T22:24:46.750Z,99210.06
2022-07-25T22:27:55.008Z,99207.78
2022-07-25T22:30:59.103Z,99212.19
2022-07-25T22:34:02.533Z,99213.00
2022-07-25T22:37:06.060Z,99217.25
2022-07-25T22:40:33.932Z,99222.19
2022-07-25T22:43:57.278Z,99223.19
2022-07-25T22:47:02.418Z,99228.97
2022-07-25T22:50:09.911Z,99232.13
2022-07-25T22:53:13.724Z,99239.53
2022-07-25T22:56:17.697Z,99228.16
2022-07-25T22:59:28.350Z,99238.00
2022-07-25T23:02:35.180Z,99243.44
2022-07-25T23:05:40.645Z,99237.59
2022-07-25T23:08:50.498Z,99245.56
2022-07-25T23:11:54.978Z,99239.53
2022-07-25T23:15:19.013Z,99244.16
2022-07-25T23:22:13.437Z,99252.88
2022-07-25T23:25:16.836Z,99266.00
2022-07-25T23:28:21.141Z,99260.56
2022-07-25T23:31:24.435Z,99246.41
2022-07-25T23:34:27.584Z,99246.41
2022-07-25T23:37:31.529Z,99257.78
2022-07-25T23:40:35.075Z,99243.12
2022-07-25T23:43:56.038Z,99242.09
2022-07-25T23:47:00.465Z,99254.63
2022-07-25T23:50:06.261Z,99250.34
2022-07-25T23:53:39.106Z,99234.22
2022-07-25T23:57:23.362Z,99230.75
